Terminal Aerodrome Forecast
Issued by NWS

Home | Current Version | Previous Version | Text Only | Print | Product List | Glossary On
Versions: 1 2 3 4 5 6 7 8 9 10 11 12 13 14 15 16 17 18
460
FTUS42 KTBW 271923 AAA
TAFPIE
TAF AMD
KPIE 271923Z 2719/2818 31009KT P6SM FEW040
     FM280000 33005KT P6SM FEW250
     FM280600 VRB03KT P6SM FEW030 SCT250
     FM281400 25006KT P6SM SCT025 SCT250
     FM281700 27008KT P6SM VCTS SCT035CB SCT150=

USA.gov is the U.S. government's official web portal to all federal, state and local government web resources and services.